Time;durP1;ratioP1;P1;durP2;ratioP2;P2;SDS_P1;SDS_P2;PMS_P1;PMS_P2;Temp;Humidity;BMP_temperature;BMP_pressure;BME280_temperature;BME280_humidity;BME280_pressure;Samples;Min_cycle;Max_cycle;Signal;HPM_P1;HPM_P2
2021/09/30 00:01:37;;;;;;;2.25;1.25;;;;;;;20.22;53.28;101709.13;4994743;28;20038;-63
2021/09/30 00:04:03;;;;;;;3.35;1.42;;;;;;;20.22;52.77;101698.47;5012708;28;20371;-63
2021/09/30 00:06:29;;;;;;;3.10;1.40;;;;;;;20.23;53.18;101699.31;5012085;28;20038;-63
2021/09/30 00:08:55;;;;;;;4.85;1.27;;;;;;;20.23;53.12;101680.66;5015234;28;20037;-63
2021/09/30 00:11:34;;;;;;;3.72;1.60;;;;;;;20.23;52.91;101681.47;5032174;28;20041;-63
2021/09/30 00:14:16;;;;;;;3.53;1.40;;;;;;;20.23;53.19;101675.31;5032062;28;20033;-63
2021/09/30 00:17:03;;;;;;;2.88;1.13;;;;;;;20.23;53.19;101672.66;5031579;28;20041;-63
2021/09/30 00:33:28;;;;;;;2.80;1.30;;;;;;;20.21;52.81;101622.22;5016472;28;20079;-63
2021/09/30 00:46:27;;;;;;;3.33;1.15;;;;;;;20.20;53.08;101583.28;5011691;28;20064;-63
2021/09/30 03:00:12;;;;;;;2.72;1.00;;;;;;;20.15;54.27;101177.28;5029083;28;20134;-63
2021/09/30 03:02:41;;;;;;;1.45;0.70;;;;;;;20.15;54.21;101174.59;5028548;28;20116;-63
2021/09/30 03:05:08;;;;;;;2.72;0.80;;;;;;;20.14;54.33;101154.31;5028798;28;20447;-63
2021/09/30 03:07:34;;;;;;;1.73;0.82;;;;;;;20.15;54.40;101142.63;5012564;28;20038;-63
2021/09/30 03:10:02;;;;;;;2.35;0.85;;;;;;;20.15;54.05;101139.97;4991221;28;20846;-63
2021/09/30 03:12:30;;;;;;;1.52;0.60;;;;;;;20.14;54.33;101131.16;5008828;28;20424;-63
2021/09/30 03:15:10;;;;;;;1.38;0.70;;;;;;;20.13;54.14;101126.03;4991040;28;20038;-63
2021/09/30 03:17:45;;;;;;;1.42;0.70;;;;;;;20.14;54.27;101125.00;4989988;28;20183;-63
2021/09/30 03:20:29;;;;;;;0.95;0.75;;;;;;;20.14;54.14;101112.53;4991921;28;20081;-64
2021/09/30 03:23:16;;;;;;;1.38;0.82;;;;;;;20.13;54.46;101121.53;5008873;28;20034;-63
2021/09/30 03:25:46;;;;;;;2.20;0.80;;;;;;;20.14;54.34;101101.03;4994436;28;20037;-63
2021/09/30 03:28:12;;;;;;;1.27;0.60;;;;;;;20.14;54.32;101099.19;5010247;28;20033;-63
2021/09/30 03:30:37;;;;;;;3.35;0.70;;;;;;;20.13;54.05;101097.56;5028915;28;20034;-63
2021/09/30 03:33:06;;;;;;;1.10;0.63;;;;;;;20.14;54.33;101088.56;5010917;28;20044;-63
2021/09/30 03:35:32;;;;;;;1.67;0.77;;;;;;;20.13;54.11;101076.25;5029218;28;20076;-63
2021/09/30 03:38:01;;;;;;;1.48;0.77;;;;;;;20.14;53.99;101077.06;5027656;28;20041;-63
2021/09/30 03:40:27;;;;;;;1.58;0.80;;;;;;;20.13;54.06;101057.59;5009069;28;20041;-63
2021/09/30 03:42:52;;;;;;;1.45;0.52;;;;;;;20.13;54.15;101060.28;4974813;28;20034;-63
2021/09/30 03:45:18;;;;;;;1.17;0.52;;;;;;;20.13;54.41;101060.28;4990711;28;20041;-63
2021/09/30 03:47:43;;;;;;;1.67;0.52;;;;;;;20.13;53.95;101048.78;5008708;28;20049;-63
2021/09/30 03:50:16;;;;;;;1.63;0.68;;;;;;;20.13;54.37;101046.94;5008606;28;20038;-63
2021/09/30 04:00:55;;;;;;;1.02;0.50;;;;;;;20.10;54.22;101023.38;5032026;28;20540;-63
2021/09/30 04:03:20;;;;;;;1.00;0.60;;;;;;;20.11;54.23;101011.72;5032017;28;20057;-63
2021/09/30 04:05:46;;;;;;;1.48;0.50;;;;;;;20.11;54.08;101008.22;5014383;28;20389;-63
2021/09/30 04:08:11;;;;;;;1.52;0.60;;;;;;;20.11;54.29;101000.22;5029843;28;20033;-63
2021/09/30 04:10:37;;;;;;;1.52;0.63;;;;;;;20.10;54.23;101002.06;5012318;28;20038;-63
2021/09/30 04:13:02;;;;;;;2.28;0.50;;;;;;;20.10;54.12;100987.94;5011377;28;20042;-62
2021/09/30 04:15:28;;;;;;;0.70;0.40;;;;;;;20.10;54.54;100993.25;5012055;28;20544;-63
2021/09/30 04:17:53;;;;;;;1.45;0.80;;;;;;;20.09;54.73;100992.44;5011874;28;20037;-62
2021/09/30 04:20:19;;;;;;;1.08;0.52;;;;;;;20.08;54.58;100984.66;5030254;28;20038;-62
2021/09/30 04:22:44;;;;;;;1.88;0.85;;;;;;;20.09;54.70;100970.31;5013842;28;20045;-62
2021/09/30 04:25:11;;;;;;;1.55;0.80;;;;;;;20.10;54.67;100979.94;5030603;28;20086;-62
2021/09/30 04:27:37;;;;;;;2.53;0.60;;;;;;;20.09;54.71;100973.78;5020526;28;20049;-61
2021/09/30 04:30:04;;;;;;;1.42;0.60;;;;;;;20.09;54.70;100973.78;4996818;28;20046;-63
2021/09/30 04:32:30;;;;;;;3.63;0.73;;;;;;;20.09;54.86;100968.47;5011746;28;20038;-63
2021/09/30 04:34:55;;;;;;;2.45;0.73;;;;;;;20.09;55.10;100957.81;5011733;28;20781;-63
2021/09/30 04:37:22;;;;;;;0.88;0.47;;;;;;;20.09;54.69;100946.34;4994120;28;20041;-63
2021/09/30 04:39:47;;;;;;;0.52;0.40;;;;;;;20.09;54.97;100952.50;5024949;28;20037;-62
2021/09/30 04:42:13;;;;;;;1.23;0.50;;;;;;;20.08;54.78;100956.19;5013362;28;20390;-63
2021/09/30 04:44:38;;;;;;;2.38;0.73;;;;;;;20.09;55.01;100946.34;5013249;28;20065;-63
2021/09/30 04:47:04;;;;;;;2.35;0.55;;;;;;;20.09;55.09;100930.38;5013091;28;20090;-63
2021/09/30 04:49:29;;;;;;;1.67;0.50;;;;;;;20.07;55.12;100916.44;5020005;28;20113;-63
2021/09/30 04:51:54;;;;;;;3.17;0.60;;;;;;;20.09;54.82;100922.38;5010819;28;20045;-65
2021/09/30 04:54:20;;;;;;;1.75;0.50;;;;;;;20.10;54.87;100924.03;5011300;28;20493;-62
2021/09/30 04:56:45;;;;;;;1.40;0.50;;;;;;;20.09;55.00;100920.53;5011141;28;20050;-63
2021/09/30 04:59:11;;;;;;;1.90;0.40;;;;;;;20.07;54.79;100919.91;4984718;28;20073;-62
2021/09/30 05:01:36;;;;;;;0.63;0.40;;;;;;;20.10;54.85;100910.69;5031252;28;20079;-63
2021/09/30 05:04:02;;;;;;;1.67;0.50;;;;;;;20.08;55.24;100912.75;5030700;28;20083;-63
2021/09/30 05:06:28;;;;;;;3.35;0.57;;;;;;;20.09;55.25;100911.72;5030842;28;20148;-63
2021/09/30 05:08:57;;;;;;;1.05;0.40;;;;;;;20.09;55.26;100909.06;5007596;28;20038;-63
2021/09/30 05:11:23;;;;;;;0.82;0.45;;;;;;;20.09;55.26;100907.22;4992261;28;20411;-63
2021/09/30 05:13:53;;;;;;;0.73;0.40;;;;;;;20.08;55.18;100907.41;4992722;28;20129;-63
2021/09/30 05:16:19;;;;;;;2.75;0.63;;;;;;;20.10;55.30;100906.19;5011591;28;20038;-63
2021/09/30 05:18:49;;;;;;;4.97;0.80;;;;;;;20.10;55.17;100905.38;5014470;28;20474;-63
2021/09/30 05:21:16;;;;;;;1.55;0.50;;;;;;;20.09;55.24;100893.91;5013489;28;20033;-63
2021/09/30 05:23:41;;;;;;;1.65;0.40;;;;;;;20.09;55.20;100893.09;5030659;28;20029;-63
2021/09/30 05:26:07;;;;;;;0.85;0.40;;;;;;;20.08;54.92;100872.81;5001641;28;20049;-62
2021/09/30 05:28:33;;;;;;;0.90;0.50;;;;;;;20.09;55.01;100877.09;4992418;28;20082;-63
2021/09/30 05:31:00;;;;;;;5.57;0.43;;;;;;;20.09;55.19;100887.75;4992852;28;20053;-63
2021/09/30 05:33:26;;;;;;;0.95;0.40;;;;;;;20.08;55.18;100886.94;5010262;28;20109;-63
2021/09/30 05:35:51;;;;;;;1.15;0.32;;;;;;;20.09;55.15;100877.91;5010623;28;20056;-63
2021/09/30 05:38:17;;;;;;;0.57;0.40;;;;;;;20.07;55.11;100890.63;4992582;28;20021;-62
2021/09/30 05:40:47;;;;;;;0.85;0.40;;;;;;;20.07;55.27;100876.47;5010745;28;20514;-62
2021/09/30 05:43:19;;;;;;;1.02;0.50;;;;;;;20.06;55.06;100865.00;5009243;28;20072;-63
2021/09/30 05:45:44;;;;;;;0.73;0.40;;;;;;;20.06;55.21;100867.69;5016247;28;20037;-63
2021/09/30 05:48:10;;;;;;;2.50;0.55;;;;;;;20.07;55.52;100857.84;5027370;28;20045;-63
2021/09/30 05:50:36;;;;;;;1.00;0.30;;;;;;;20.08;55.38;100872.81;5011416;28;20095;-63
2021/09/30 05:53:02;;;;;;;0.90;0.40;;;;;;;20.07;55.37;100876.47;5029102;28;20037;-63
2021/09/30 05:55:28;;;;;;;1.45;0.38;;;;;;;20.06;55.39;100873.00;5006812;28;20092;-63
2021/09/30 05:57:53;;;;;;;1.13;0.50;;;;;;;20.06;55.68;100861.53;4991415;28;20049;-63
2021/09/30 06:11:17;;;;;;;0.43;0.30;;;;;;;20.05;55.47;100839.41;5029627;28;20120;-63
2021/09/30 06:16:22;;;;;;;0.47;0.38;;;;;;;20.04;55.62;100838.59;5001934;28;20112;-63
2021/09/30 06:18:48;;;;;;;0.50;0.32;;;;;;;20.04;55.33;100845.75;5009942;28;20030;-62
2021/09/30 06:21:13;;;;;;;0.65;0.50;;;;;;;20.04;55.67;100837.75;5009263;28;20030;-63
2021/09/30 06:23:39;;;;;;;1.65;0.50;;;;;;;20.04;55.55;100841.25;5010104;28;20041;-64
2021/09/30 06:26:05;;;;;;;1.30;0.38;;;;;;;20.04;55.69;100841.25;5002833;28;20050;-62
2021/09/30 06:28:30;;;;;;;0.90;0.40;;;;;;;20.04;55.54;100816.47;5028782;28;20038;-63
2021/09/30 06:30:56;;;;;;;0.20;0.20;;;;;;;20.04;55.45;100822.59;5012042;28;20037;-63
2021/09/30 06:33:23;;;;;;;1.83;0.40;;;;;;;20.04;55.41;100827.13;5011182;28;20049;-62
2021/09/30 06:35:49;;;;;;;0.30;0.30;;;;;;;20.04;55.37;100841.25;5002192;28;20471;-63
2021/09/30 06:38:15;;;;;;;0.30;0.30;;;;;;;20.03;55.81;100826.25;5008975;28;20045;-62
2021/09/30 06:40:40;;;;;;;0.30;0.30;;;;;;;20.04;55.86;100840.44;4992061;28;20115;-63
2021/09/30 06:43:06;;;;;;;1.55;0.40;;;;;;;20.04;55.49;100829.78;4991407;28;20030;-63
2021/09/30 06:45:32;;;;;;;0.80;0.52;;;;;;;20.03;55.93;100823.59;5017484;28;20095;-62
2021/09/30 06:47:57;;;;;;;0.50;0.40;;;;;;;20.04;55.73;100824.44;5029064;28;20112;-62
2021/09/30 06:50:22;;;;;;;1.77;0.40;;;;;;;20.03;55.52;100820.94;5010890;28;20069;-63
2021/09/30 06:52:48;;;;;;;0.75;0.38;;;;;;;20.03;55.85;100833.44;5029057;28;20037;-62
2021/09/30 06:55:13;;;;;;;0.90;0.40;;;;;;;20.03;55.77;100818.28;5004289;28;20046;-63
2021/09/30 06:57:39;;;;;;;0.95;0.40;;;;;;;20.03;55.62;100817.44;5009040;28;20153;-62
2021/09/30 07:00:08;;;;;;;0.63;0.30;;;;;;;20.04;55.52;100821.78;5008827;28;20053;-63
2021/09/30 07:02:37;;;;;;;0.30;0.30;;;;;;;20.02;55.73;100813.97;4992225;28;20045;-62
2021/09/30 07:05:03;;;;;;;0.65;0.50;;;;;;;20.03;55.78;100801.47;4991141;28;20084;-63
2021/09/30 07:07:28;;;;;;;1.75;0.40;;;;;;;20.02;55.89;100813.16;4991479;28;20038;-62
2021/09/30 07:09:54;;;;;;;0.75;0.30;;;;;;;20.01;55.91;100819.50;4991064;28;20145;-62
2021/09/30 07:12:20;;;;;;;0.35;0.30;;;;;;;20.01;55.79;100822.97;4999392;28;20044;-63
2021/09/30 07:14:45;;;;;;;1.23;0.40;;;;;;;20.00;56.31;100815.19;4996862;28;20467;-63
2021/09/30 07:17:10;;;;;;;2.22;0.47;;;;;;;20.01;56.43;100822.16;4994812;28;20037;-63
2021/09/30 07:19:36;;;;;;;3.10;0.60;;;;;;;20.00;56.25;100816.00;5008657;28;20482;-61
2021/09/30 07:22:06;;;;;;;3.10;0.30;;;;;;;20.00;56.59;100825.84;5009152;28;20053;-61
2021/09/30 07:24:36;;;;;;;3.42;0.82;;;;;;;20.00;57.24;100820.53;4991713;28;20184;-61
2021/09/30 07:27:02;;;;;;;3.30;1.35;;;;;;;20.02;57.25;100818.47;4991318;28;20128;-61
2021/09/30 07:29:28;;;;;;;1.83;0.40;;;;;;;20.01;57.55;100822.16;4989883;28;20129;-61
2021/09/30 07:31:53;;;;;;;5.18;0.52;;;;;;;20.00;57.56;100817.84;4989978;28;20037;-61
2021/09/30 07:34:19;;;;;;;1.58;0.32;;;;;;;20.02;57.95;100834.44;4992677;28;20376;-61
2021/09/30 07:36:45;;;;;;;1.50;0.40;;;;;;;20.02;58.11;100821.13;4973374;28;20037;-61
2021/09/30 07:39:11;;;;;;;2.35;0.40;;;;;;;20.02;58.77;100819.28;5010338;28;20490;-61
2021/09/30 07:41:38;;;;;;;1.75;0.50;;;;;;;20.02;58.91;100813.97;5011007;28;20044;-61
2021/09/30 07:44:05;;;;;;;2.75;0.45;;;;;;;20.03;58.83;100812.94;5030667;28;20033;-61
2021/09/30 07:46:35;;;;;;;3.13;0.50;;;;;;;20.02;59.36;100811.31;5031711;28;20482;-61
2021/09/30 07:49:03;;;;;;;4.25;0.63;;;;;;;20.05;59.52;100807.44;5028942;28;20485;-61
2021/09/30 07:51:28;;;;;;;2.65;0.30;;;;;;;20.03;59.24;100810.28;5019568;28;20036;-61
2021/09/30 07:53:54;;;;;;;2.58;0.47;;;;;;;20.03;59.51;100810.28;5011349;28;20046;-61
2021/09/30 07:56:20;;;;;;;2.50;0.60;;;;;;;20.04;59.50;100816.47;5011844;28;20061;-61
2021/09/30 07:58:45;;;;;;;9.30;0.73;;;;;;;20.04;60.07;100813.78;4993008;28;20416;-61
2021/09/30 08:01:11;;;;;;;2.75;0.75;;;;;;;20.04;59.89;100803.16;5011608;28;20253;-61
2021/09/30 08:03:36;;;;;;;1.70;0.50;;;;;;;20.01;60.13;100799.00;5011839;28;20037;-62
2021/09/30 08:06:02;;;;;;;1.90;0.40;;;;;;;20.01;60.11;100806.19;5012128;28;20048;-63
2021/09/30 08:08:27;;;;;;;2.05;0.45;;;;;;;19.99;60.10;100802.91;4992441;28;20044;-64
2021/09/30 08:10:53;;;;;;;2.10;0.60;;;;;;;19.98;60.06;100801.25;5009173;28;20069;-62
2021/09/30 08:13:18;;;;;;;2.35;0.50;;;;;;;19.97;60.34;100811.09;4991957;28;20038;-62
2021/09/30 08:15:44;;;;;;;2.33;0.50;;;;;;;19.96;60.20;100814.78;4991065;28;20046;-63
2021/09/30 08:18:09;;;;;;;3.50;0.60;;;;;;;19.96;60.44;100808.63;5008928;28;20053;-62
2021/09/30 08:20:41;;;;;;;2.28;0.50;;;;;;;19.96;60.28;100816.63;5008720;28;20116;-62
2021/09/30 08:23:09;;;;;;;1.52;0.43;;;;;;;19.96;60.33;100814.78;5008937;28;20135;-63
2021/09/30 08:25:34;;;;;;;2.78;0.68;;;;;;;19.94;60.48;100811.50;4990575;28;20808;-62
2021/09/30 08:28:00;;;;;;;1.42;0.50;;;;;;;19.94;60.19;100790.19;4974662;28;20129;-62
2021/09/30 08:30:25;;;;;;;1.52;0.60;;;;;;;19.94;60.24;100806.16;5008750;28;20045;-62
2021/09/30 08:32:51;;;;;;;3.25;0.57;;;;;;;19.93;60.69;100798.38;4991878;28;20030;-62
2021/09/30 08:35:16;;;;;;;5.28;0.70;;;;;;;19.94;60.48;100802.69;4991725;28;20030;-62
2021/09/30 08:37:42;;;;;;;2.40;0.50;;;;;;;19.94;60.31;100802.69;4960246;28;20133;-62
2021/09/30 08:40:08;;;;;;;0.85;0.40;;;;;;;19.92;60.57;100797.56;4992008;28;20037;-62
2021/09/30 08:42:34;;;;;;;3.75;0.63;;;;;;;19.93;60.55;100804.53;4991608;28;20581;-62
2021/09/30 08:44:59;;;;;;;2.28;0.50;;;;;;;19.92;60.48;100799.41;5008723;28;20146;-62
2021/09/30 08:47:25;;;;;;;2.30;0.85;;;;;;;19.92;60.71;100799.41;5009760;28;20041;-62
2021/09/30 08:49:50;;;;;;;1.02;0.55;;;;;;;19.92;60.70;100799.41;5009833;28;20041;-62
2021/09/30 08:52:16;;;;;;;0.90;0.43;;;;;;;19.92;60.57;100802.06;5009940;28;20083;-62
2021/09/30 08:54:41;;;;;;;1.88;0.60;;;;;;;19.92;60.68;100810.06;5011327;28;20442;-62
2021/09/30 08:57:07;;;;;;;2.10;0.60;;;;;;;19.92;60.86;100799.41;4977138;28;20046;-62
2021/09/30 08:59:34;;;;;;;1.52;0.50;;;;;;;19.89;61.49;100813.13;5010703;28;20109;-62
2021/09/30 09:02:16;;;;;;;1.90;0.50;;;;;;;19.84;61.78;100805.72;5010716;28;20034;-62
2021/09/30 09:04:59;;;;;;;2.92;0.60;;;;;;;19.79;61.60;100807.34;5011182;28;20078;-62
2021/09/30 09:07:30;;;;;;;0.93;0.60;;;;;;;19.80;61.97;100814.28;5011130;28;20041;-62
2021/09/30 09:09:58;;;;;;;1.48;0.50;;;;;;;19.80;61.58;100804.47;5010959;28;20259;-62
2021/09/30 09:12:26;;;;;;;2.35;0.60;;;;;;;19.79;61.58;100818.81;5010594;28;20514;-62
2021/09/30 09:14:52;;;;;;;1.15;0.47;;;;;;;19.77;61.92;100814.69;5010608;28;20038;-62
2021/09/30 09:17:19;;;;;;;0.82;0.40;;;;;;;19.78;61.68;100813.69;5010669;28;20050;-62
2021/09/30 09:19:50;;;;;;;1.63;0.52;;;;;;;19.76;61.72;100818.38;5010768;28;20040;-62
2021/09/30 09:22:24;;;;;;;1.15;0.40;;;;;;;19.73;61.82;100816.94;5010677;28;20113;-62
2021/09/30 09:25:16;;;;;;;1.88;0.55;;;;;;;19.68;61.68;100820.16;4993169;28;20037;-62
2021/09/30 09:27:44;;;;;;;3.42;0.57;;;;;;;19.73;61.68;100815.09;5010591;28;20060;-61
2021/09/30 09:30:53;;;;;;;1.38;0.60;;;;;;;19.69;62.04;100819.16;5010434;28;20061;-61
2021/09/30 09:33:27;;;;;;;0.82;0.60;;;;;;;19.72;61.82;100812.59;5004392;28;20050;-61
2021/09/30 09:35:58;;;;;;;2.67;0.60;;;;;;;19.74;61.46;100823.91;5010836;28;20038;-61
2021/09/30 09:38:45;;;;;;;2.10;0.75;;;;;;;19.70;61.51;100817.31;5010009;28;20068;-61
2021/09/30 09:41:16;;;;;;;1.13;0.40;;;;;;;19.76;61.35;100818.38;5010553;28;20037;-61
2021/09/30 09:43:45;;;;;;;1.40;0.50;;;;;;;19.77;61.38;100812.03;4991407;28;20044;-61
2021/09/30 09:46:13;;;;;;;1.30;0.55;;;;;;;19.78;61.12;100811.00;5010733;28;20117;-61
2021/09/30 09:48:39;;;;;;;3.55;0.73;;;;;;;19.78;61.07;100811.84;5009885;28;20097;-61
2021/09/30 09:51:11;;;;;;;2.58;0.75;;;;;;;19.78;61.17;100805.69;5010059;28;20415;-61
2021/09/30 09:53:37;;;;;;;1.40;0.50;;;;;;;19.78;61.35;100805.69;5009580;28;20127;-61
2021/09/30 09:56:20;;;;;;;2.15;0.80;;;;;;;19.70;61.03;100804.81;5009518;28;20050;-61
2021/09/30 09:58:48;;;;;;;2.28;0.68;;;;;;;19.74;61.20;100803.44;5009653;28;20104;-61
2021/09/30 10:01:15;;;;;;;2.75;0.77;;;;;;;19.76;60.81;100805.06;4992446;28;20418;-61
2021/09/30 10:03:52;;;;;;;2.30;0.80;;;;;;;19.74;60.60;100807.94;5010052;28;20034;-61
2021/09/30 10:06:18;;;;;;;3.67;0.93;;;;;;;19.78;60.60;100811.00;5010242;28;20026;-61
2021/09/30 10:08:44;;;;;;;6.22;0.80;;;;;;;19.77;60.38;100804.06;5009690;28;20457;-61
2021/09/30 10:11:11;;;;;;;4.20;0.95;;;;;;;19.76;60.40;100823.72;5010055;28;20037;-61
2021/09/30 10:13:37;;;;;;;2.65;0.82;;;;;;;19.75;60.73;100809.56;5009072;28;20041;-61
2021/09/30 10:16:04;;;;;;;3.25;1.00;;;;;;;19.74;60.42;100811.41;5009895;28;20029;-61
2021/09/30 10:18:29;;;;;;;2.22;1.00;;;;;;;19.74;60.31;100805.28;5009222;28;20029;-61
2021/09/30 10:20:57;;;;;;;3.15;0.95;;;;;;;19.70;60.00;100801.34;5009908;28;20045;-61
2021/09/30 10:23:26;;;;;;;3.45;0.80;;;;;;;19.70;60.13;100793.34;5009432;28;20033;-61
2021/09/30 10:25:59;;;;;;;6.35;1.10;;;;;;;19.69;60.37;100784.56;5009507;28;20038;-61
2021/09/30 10:28:25;;;;;;;3.53;0.95;;;;;;;19.70;60.25;100798.69;5008419;28;20152;-61
2021/09/30 10:30:53;;;;;;;3.45;0.85;;;;;;;19.69;59.79;100791.72;5009593;28;20065;-61
2021/09/30 10:33:40;;;;;;;4.18;1.00;;;;;;;19.60;60.08;100796.41;5009397;28;20116;-61
2021/09/30 10:36:36;;;;;;;2.22;0.90;;;;;;;19.59;59.93;100786.78;4991517;28;20029;-61
2021/09/30 10:39:16;;;;;;;2.47;0.82;;;;;;;19.60;59.67;100793.75;4991692;28;20042;-61
2021/09/30 10:41:42;;;;;;;2.85;0.85;;;;;;;19.63;59.71;100781.88;5009004;28;20042;-61
2021/09/30 10:44:13;;;;;;;4.63;0.90;;;;;;;19.60;59.54;100785.75;5009102;28;20030;-61
2021/09/30 10:46:41;;;;;;;3.28;0.73;;;;;;;19.63;59.87;100780.03;5009143;28;20041;-61
2021/09/30 10:49:36;;;;;;;2.70;0.70;;;;;;;19.55;60.01;100782.84;5009336;28;20072;-61
2021/09/30 10:52:22;;;;;;;2.47;0.80;;;;;;;19.55;59.66;100766.06;5009330;28;20070;-61
2021/09/30 10:54:55;;;;;;;3.40;1.00;;;;;;;19.55;59.59;100790.00;5009038;28;20026;-61
2021/09/30 10:57:32;;;;;;;3.30;0.77;;;;;;;19.50;59.93;100771.94;5008756;28;20527;-63
2021/09/30 10:59:59;;;;;;;2.53;0.65;;;;;;;19.52;59.96;100785.06;5008894;28;20099;-61
2021/09/30 11:02:25;;;;;;;2.38;0.70;;;;;;;19.51;59.58;100786.88;5008924;28;20038;-61
2021/09/30 11:05:09;;;;;;;2.05;0.77;;;;;;;19.47;59.78;100798.94;5009154;28;20057;-61
2021/09/30 11:07:40;;;;;;;3.75;0.82;;;;;;;19.54;59.72;100794.50;5010985;28;20045;-60
2021/09/30 11:10:14;;;;;;;3.08;0.90;;;;;;;19.53;59.89;100814.13;5013118;28;20613;-60
2021/09/30 11:13:17;;;;;;;4.40;1.00;;;;;;;19.48;59.76;100826.38;5012491;28;20041;-61
2021/09/30 11:16:08;;;;;;;3.70;0.90;;;;;;;19.40;59.93;100822.03;5012847;28;20064;-61
2021/09/30 11:18:52;;;;;;;13.40;2.45;;;;;;;19.45;60.08;100827.59;5001774;28;20521;-61
2021/09/30 11:21:30;;;;;;;7.55;1.48;;;;;;;19.41;60.09;100823.69;5013303;28;20072;-61
2021/09/30 11:24:06;;;;;;;7.60;1.50;;;;;;;19.40;59.95;100814.84;5013096;28;20068;-61
2021/09/30 11:26:34;;;;;;;6.22;1.42;;;;;;;19.41;59.84;100799.75;5012848;28;20125;-61
2021/09/30 11:29:38;;;;;;;9.73;2.05;;;;;;;19.33;59.99;100803.38;4994884;28;20176;-61
2021/09/30 11:32:04;;;;;;;9.75;2.10;;;;;;;19.41;60.08;100813.03;4932532;29;20036;-61
2021/09/30 11:34:38;;;;;;;6.85;1.60;;;;;;;19.42;60.11;100804.06;4932704;29;20075;-61
2021/09/30 11:37:40;;;;;;;9.07;1.73;;;;;;;19.37;60.28;100809.13;4974181;28;20049;-61
2021/09/30 11:40:13;;;;;;;8.07;2.53;;;;;;;19.46;59.79;100807.94;4971194;28;20068;-61
2021/09/30 11:42:51;;;;;;;8.00;2.13;;;;;;;19.45;60.10;100806.31;5011999;28;20021;-61
2021/09/30 11:45:23;;;;;;;7.97;1.83;;;;;;;19.49;60.09;100807.56;5011865;28;20042;-61
2021/09/30 11:47:50;;;;;;;14.90;2.38;;;;;;;19.51;59.77;100805.50;5012555;28;20025;-61
2021/09/30 11:50:28;;;;;;;9.90;2.80;;;;;;;19.47;59.64;100808.78;5012333;28;20030;-61
2021/09/30 11:53:03;;;;;;;12.77;2.55;;;;;;;19.46;59.88;100799.97;5012258;28;20037;-61
2021/09/30 11:55:29;;;;;;;8.68;2.25;;;;;;;19.50;59.91;100798.56;5012055;28;20487;-61
2021/09/30 11:58:03;;;;;;;7.32;2.30;;;;;;;19.49;59.56;100796.09;5012171;28;20479;-61
2021/09/30 12:00:29;;;;;;;9.07;2.37;;;;;;;19.50;59.37;100793.22;5011706;28;20052;-61
2021/09/30 12:03:01;;;;;;;10.20;2.72;;;;;;;19.49;59.45;100788.94;5012480;28;20271;-61
2021/09/30 12:05:31;;;;;;;10.07;2.50;;;;;;;19.50;59.28;100793.22;4994030;28;20439;-61
2021/09/30 12:07:58;;;;;;;8.50;1.95;;;;;;;19.47;59.46;100780.34;4994503;28;20091;-61
2021/09/30 12:10:25;;;;;;;7.05;2.47;;;;;;;19.46;59.03;100784.00;5011986;28;20136;-61
2021/09/30 12:12:51;;;;;;;9.10;2.42;;;;;;;19.46;59.31;100778.69;5011532;28;20120;-61
2021/09/30 12:15:16;;;;;;;11.55;2.45;;;;;;;19.45;59.35;100780.53;5011760;28;20610;-61
2021/09/30 12:17:42;;;;;;;13.18;2.40;;;;;;;19.47;58.91;100783.00;5012126;28;20076;-61
2021/09/30 12:20:11;;;;;;;8.73;2.13;;;;;;;19.48;58.96;100775.81;5011135;28;20030;-61
2021/09/30 12:22:40;;;;;;;9.48;2.08;;;;;;;19.50;58.73;100779.09;5011621;28;20464;-61
2021/09/30 12:25:09;;;;;;;9.30;1.70;;;;;;;19.49;59.00;100780.13;5011999;28;20038;-61
2021/09/30 12:27:38;;;;;;;7.80;2.13;;;;;;;19.49;58.82;100783.59;5011392;28;20029;-61
2021/09/30 12:30:14;;;;;;;7.57;1.75;;;;;;;19.47;58.94;100785.66;5011540;28;20034;-61
2021/09/30 12:32:42;;;;;;;6.60;1.80;;;;;;;19.50;58.70;100774.63;5011625;28;20060;-61
2021/09/30 12:35:10;;;;;;;9.40;2.08;;;;;;;19.50;58.66;100763.97;5011508;28;20038;-61
2021/09/30 12:37:39;;;;;;;8.18;2.05;;;;;;;19.52;58.78;100763.75;4993842;28;20103;-61
2021/09/30 12:40:10;;;;;;;6.63;1.77;;;;;;;19.50;58.64;100769.28;5011642;28;20029;-61
2021/09/30 12:42:37;;;;;;;7.45;2.05;;;;;;;19.53;58.67;100755.59;5010830;28;20475;-61
2021/09/30 12:45:04;;;;;;;7.65;1.65;;;;;;;19.55;58.72;100758.06;5010832;28;20430;-61
2021/09/30 12:47:38;;;;;;;7.63;1.38;;;;;;;19.55;58.51;100761.56;5010890;28;20128;-61
2021/09/30 12:50:08;;;;;;;6.53;1.77;;;;;;;19.56;58.60;100763.19;5011451;28;20076;-61
2021/09/30 12:52:35;;;;;;;5.97;1.95;;;;;;;19.58;59.06;100760.38;5011225;28;20034;-61
2021/09/30 12:55:23;;;;;;;7.18;1.75;;;;;;;19.52;58.93;100745.97;5011366;28;20747;-61
2021/09/30 12:57:49;;;;;;;4.90;1.73;;;;;;;19.58;58.48;100747.88;4999743;28;20042;-61
2021/09/30 13:00:17;;;;;;;6.88;1.85;;;;;;;19.59;58.88;100746.88;4993026;28;20380;-61
2021/09/30 13:02:43;;;;;;;5.80;1.80;;;;;;;19.60;58.89;100750.34;5011097;28;20088;-61
2021/09/30 13:05:10;;;;;;;4.93;1.58;;;;;;;19.59;58.64;100738.88;5011076;28;20026;-61
2021/09/30 13:08:05;;;;;;;5.32;1.80;;;;;;;19.48;59.05;100755.38;5010909;28;20044;-61
2021/09/30 13:10:34;;;;;;;7.97;1.90;;;;;;;19.53;58.83;100758.25;4994056;28;20057;-61
2021/09/30 13:13:01;;;;;;;8.90;2.20;;;;;;;19.47;58.91;100748.41;5010692;28;20040;-61
2021/09/30 13:15:44;;;;;;;7.82;2.22;;;;;;;19.38;58.30;100750.41;5010272;28;20069;-61
2021/09/30 13:18:12;;;;;;;11.80;2.97;;;;;;;19.42;58.30;100745.53;5010492;28;20316;-61
2021/09/30 13:20:40;;;;;;;8.32;2.28;;;;;;;19.43;58.12;100725.88;4992874;28;20092;-61
2021/09/30 13:23:06;;;;;;;10.32;2.75;;;;;;;19.42;58.16;100721.59;5010721;28;20040;-61
2021/09/30 13:25:32;;;;;;;7.97;1.90;;;;;;;19.42;57.67;100726.91;5010117;28;20509;-61
2021/09/30 13:27:58;;;;;;;8.13;2.45;;;;;;;19.41;57.65;100719.94;5010022;28;20116;-61
2021/09/30 13:30:27;;;;;;;9.98;2.55;;;;;;;19.41;57.99;100731.41;5008577;28;20037;-61
2021/09/30 13:32:58;;;;;;;9.70;2.38;;;;;;;19.43;57.57;100723.22;5010088;28;20045;-61
2021/09/30 13:35:26;;;;;;;9.95;2.25;;;;;;;19.42;57.21;100716.25;4992341;28;20512;-61
2021/09/30 13:37:55;;;;;;;8.57;1.80;;;;;;;19.41;57.46;100710.13;5009855;28;20038;-61
2021/09/30 13:40:22;;;;;;;9.95;2.70;;;;;;;19.42;57.37;100711.75;4992702;28;20030;-61
2021/09/30 13:42:48;;;;;;;9.13;2.47;;;;;;;19.42;57.10;100716.25;5009508;28;20030;-61
2021/09/30 13:45:15;;;;;;;9.50;2.75;;;;;;;19.44;57.57;100715.03;4992020;28;20126;-61
2021/09/30 13:47:42;;;;;;;10.93;2.00;;;;;;;19.46;57.15;100709.53;4991835;28;20439;-61
2021/09/30 13:50:16;;;;;;;8.27;2.78;;;;;;;19.45;56.95;100713.19;5010257;28;20537;-61
2021/09/30 13:52:43;;;;;;;9.75;2.00;;;;;;;19.46;57.22;100712.19;5010040;28;20041;-61
2021/09/30 13:55:10;;;;;;;7.88;2.10;;;;;;;19.46;56.92;100704.19;5009600;28;20104;-61
2021/09/30 13:57:35;;;;;;;9.35;2.40;;;;;;;19.45;56.91;100699.91;5009337;28;20034;-61
2021/09/30 14:00:06;;;;;;;8.30;2.60;;;;;;;19.44;56.87;100703.59;5009601;28;20127;-61
2021/09/30 14:02:33;;;;;;;10.70;2.58;;;;;;;19.44;56.83;100700.91;4991555;28;20725;-61
2021/09/30 14:04:58;;;;;;;9.73;2.42;;;;;;;19.42;57.04;100694.97;5009925;28;20038;-61
2021/09/30 14:07:24;;;;;;;11.35;2.33;;;;;;;19.41;56.79;100686.19;5009751;28;20033;-61
2021/09/30 14:09:49;;;;;;;12.00;2.20;;;;;;;19.44;56.75;100687.63;4991541;28;20137;-61
2021/09/30 14:12:15;;;;;;;9.98;2.83;;;;;;;19.41;56.72;100688.84;5008938;28;20152;-61
2021/09/30 14:14:41;;;;;;;9.68;2.42;;;;;;;19.42;56.79;100679.03;5008636;28;20042;-61
2021/09/30 14:17:06;;;;;;;11.32;2.63;;;;;;;19.44;56.91;100684.97;4991565;28;20045;-61
2021/09/30 14:19:32;;;;;;;10.23;2.55;;;;;;;19.44;56.79;100695.59;5009222;28;20507;-61
2021/09/30 14:21:58;;;;;;;9.38;2.63;;;;;;;19.45;56.82;100691.91;5009327;28;20038;-61
2021/09/30 14:24:25;;;;;;;13.60;2.90;;;;;;;19.45;56.69;100678.63;5009246;28;20052;-61
2021/09/30 14:26:51;;;;;;;12.93;2.40;;;;;;;19.45;56.78;100674.13;5008509;28;20029;-61
2021/09/30 14:29:16;;;;;;;10.25;2.70;;;;;;;19.44;56.85;100675.13;5008947;28;20041;-61
2021/09/30 14:31:42;;;;;;;13.93;2.97;;;;;;;19.44;56.50;100680.47;4990689;28;20053;-61